Pep, Texas
Current Conditions -  °F | °C
As of 6:53 AM on Monday 22 Dec 2014 (Local Time) from KLBB Reporting Station
Few Clouds Few Clouds  
Wind Chill: 40°   Ceiling: Unl
Heat Index: 46°   Visibility: 10mi
Dew Point: 31°   Wind: 15mph
Humidity: 56%   Direction: 330°NNW
Pressure: 29.68"   Gusts: NA
Location:  33.81°N, 102.56°W
Report Text: KLBB 221253Z 33013KT 10SM FEW260 08/M01 A2968 RMK AO2 SLP028 T00781006
Loading
Personal Weather Stations






























Interactive Weather Map New forecast layout! Learn more

10-Day Weather Forecast

Advertisements
Track Severe Weather on mobile